createdAt,value
2019-05-30T00:00:35.546Z,2.43
2019-05-30T00:03:25.452Z,2.17
2019-05-30T00:06:15.093Z,2.67
2019-05-30T00:09:06.268Z,2.40
2019-05-30T00:11:56.699Z,2.47
2019-05-30T00:14:46.994Z,2.37
2019-05-30T00:17:36.609Z,2.63
2019-05-30T00:20:27.414Z,2.87
2019-05-30T00:23:17.027Z,3.30
2019-05-30T00:26:07.577Z,2.57
2019-05-30T00:29:00.062Z,2.50
2019-05-30T00:31:50.908Z,2.37
2019-05-30T00:34:41.377Z,2.53
2019-05-30T00:37:30.991Z,2.50
2019-05-30T00:40:22.775Z,2.50
2019-05-30T00:43:13.143Z,2.30
2019-05-30T00:46:02.755Z,2.60
2019-05-30T00:48:52.697Z,2.20
2019-05-30T00:51:42.831Z,2.37
2019-05-30T00:54:32.838Z,2.63
2019-05-30T00:57:23.279Z,2.13
2019-05-30T01:00:14.014Z,2.10
2019-05-30T01:03:06.459Z,2.53
2019-05-30T01:05:56.666Z,2.70
2019-05-30T01:08:46.806Z,2.60
2019-05-30T01:11:36.929Z,2.60
2019-05-30T01:14:26.536Z,2.60
2019-05-30T01:17:16.558Z,2.63
2019-05-30T01:20:08.399Z,3.00
2019-05-30T01:22:59.150Z,2.30
2019-05-30T01:25:49.462Z,2.90
2019-05-30T01:28:39.642Z,2.60
2019-05-30T01:31:29.628Z,2.80
2019-05-30T01:34:19.493Z,2.57
2019-05-30T01:37:09.737Z,2.37
2019-05-30T01:39:59.799Z,3.33
2019-05-30T01:42:49.799Z,2.43
2019-05-30T01:45:40.257Z,2.63
2019-05-30T01:48:30.002Z,2.00
2019-05-30T01:51:20.062Z,2.30
2019-05-30T01:54:10.243Z,2.50
2019-05-30T01:57:02.534Z,3.03
2019-05-30T01:59:52.483Z,2.87
2019-05-30T02:02:43.277Z,2.53
2019-05-30T02:06:01.057Z,2.70
2019-05-30T02:08:51.478Z,2.40
2019-05-30T02:11:41.290Z,2.80
2019-05-30T02:14:31.455Z,2.60
2019-05-30T02:17:22.693Z,2.83
2019-05-30T02:20:12.876Z,2.77
2019-05-30T02:23:05.480Z,2.70
2019-05-30T02:25:54.641Z,2.60
2019-05-30T02:28:44.485Z,2.50
2019-05-30T02:31:39.368Z,2.83
2019-05-30T02:34:26.746Z,2.67
2019-05-30T02:37:16.595Z,2.40
2019-05-30T02:40:10.595Z,3.40
2019-05-30T02:42:58.457Z,2.60
2019-05-30T02:45:48.266Z,2.73
2019-05-30T02:48:57.194Z,2.37
2019-05-30T02:51:29.190Z,2.80
2019-05-30T02:54:18.961Z,2.13
2019-05-30T02:57:12.333Z,2.73
2019-05-30T03:00:02.855Z,2.20
2019-05-30T03:02:52.456Z,2.30
2019-05-30T03:05:42.406Z,1.83
2019-05-30T03:08:32.580Z,2.40
2019-05-30T03:11:22.764Z,2.23
2019-05-30T03:14:19.057Z,2.40
2019-05-30T03:17:05.392Z,2.00
2019-05-30T03:19:56.014Z,1.83
2019-05-30T03:22:46.100Z,2.40
2019-05-30T03:25:36.416Z,2.00
2019-05-30T03:28:25.890Z,2.50
2019-05-30T03:31:27.312Z,2.57
2019-05-30T03:34:16.717Z,2.07
2019-05-30T03:37:00.418Z,3.00
2019-05-30T03:39:49.981Z,2.73
2019-05-30T03:42:40.111Z,1.93
2019-05-30T03:45:31.946Z,1.67
2019-05-30T03:48:24.399Z,2.13
2019-05-30T03:51:16.556Z,2.03
2019-05-30T03:54:07.697Z,2.00
2019-05-30T03:57:09.100Z,2.07
2019-05-30T04:00:03.414Z,2.07
2019-05-30T04:02:59.378Z,1.90
2019-05-30T04:05:53.592Z,2.07
2019-05-30T04:08:46.436Z,2.23
2019-05-30T04:11:44.565Z,2.00
2019-05-30T04:14:36.972Z,1.87
2019-05-30T04:17:27.151Z,2.30
2019-05-30T04:20:20.550Z,2.43
2019-05-30T04:23:08.685Z,1.63
2019-05-30T04:26:00.931Z,2.17
2019-05-30T04:28:51.096Z,2.00
2019-05-30T04:31:41.426Z,1.70
2019-05-30T04:34:31.344Z,1.93
2019-05-30T04:37:20.992Z,2.10
2019-05-30T04:40:11.255Z,2.10
2019-05-30T04:43:02.299Z,2.13
2019-05-30T04:45:52.015Z,2.00
2019-05-30T04:48:41.906Z,1.97
2019-05-30T04:51:32.045Z,2.13
2019-05-30T04:54:22.159Z,2.00
2019-05-30T04:57:12.751Z,2.10
2019-05-30T05:00:02.649Z,2.20
2019-05-30T05:02:54.191Z,2.13
2019-05-30T05:05:44.064Z,1.93
2019-05-30T05:08:33.896Z,2.33
2019-05-30T05:11:25.443Z,2.00
2019-05-30T05:14:16.385Z,1.93
2019-05-30T05:17:05.997Z,2.00
2019-05-30T05:19:55.885Z,1.97
2019-05-30T05:22:45.813Z,1.97
2019-05-30T05:25:35.900Z,1.93
2019-05-30T05:28:26.012Z,1.83
2019-05-30T05:31:16.529Z,2.17
2019-05-30T05:34:06.486Z,2.10
2019-05-30T05:36:56.086Z,2.40
2019-05-30T05:39:45.998Z,1.83
2019-05-30T05:42:35.959Z,2.43
2019-05-30T05:45:26.165Z,2.37
2019-05-30T05:48:16.503Z,2.77
2019-05-30T05:51:07.067Z,1.87
2019-05-30T05:53:56.660Z,1.93
2019-05-30T05:56:46.296Z,2.37
2019-05-30T05:59:36.075Z,1.93
2019-05-30T06:02:27.226Z,1.97
2019-05-30T06:05:18.147Z,2.10
2019-05-30T06:08:08.712Z,2.20
2019-05-30T06:10:58.976Z,2.13
2019-05-30T06:13:48.735Z,1.90
2019-05-30T06:16:38.611Z,2.10
2019-05-30T06:19:45.041Z,2.17
2019-05-30T06:22:21.363Z,1.93
2019-05-30T06:25:11.756Z,2.03
2019-05-30T06:28:02.415Z,2.57
2019-05-30T06:30:52.235Z,1.87
2019-05-30T06:33:41.637Z,2.27
2019-05-30T06:36:32.001Z,2.17
2019-05-30T06:39:23.393Z,1.87
2019-05-30T06:42:13.631Z,1.90
2019-05-30T06:45:04.065Z,2.17
2019-05-30T06:47:54.005Z,2.27
2019-05-30T06:50:44.127Z,2.40
2019-05-30T06:53:34.797Z,2.03
2019-05-30T06:56:25.268Z,2.20
2019-05-30T06:59:15.277Z,2.37
2019-05-30T07:02:05.440Z,1.70
2019-05-30T07:04:56.597Z,2.20
2019-05-30T07:07:46.945Z,2.20
2019-05-30T07:10:37.205Z,2.10
2019-05-30T07:13:27.468Z,2.13
2019-05-30T07:16:17.702Z,2.40
2019-05-30T07:19:07.812Z,2.23
2019-05-30T07:21:57.219Z,2.47
2019-05-30T07:24:48.715Z,1.93
2019-05-30T07:27:38.447Z,1.97
2019-05-30T07:30:28.050Z,2.40
2019-05-30T07:33:17.868Z,2.07
2019-05-30T07:36:07.754Z,1.97
2019-05-30T07:38:58.113Z,2.00
2019-05-30T07:42:04.888Z,1.87
2019-05-30T07:44:39.995Z,2.00
2019-05-30T07:47:30.170Z,2.20
2019-05-30T07:50:20.573Z,1.70
2019-05-30T07:53:10.549Z,2.10
2019-05-30T07:56:00.570Z,2.50
2019-05-30T07:58:50.637Z,2.10
2019-05-30T08:01:41.011Z,2.00
2019-05-30T08:04:32.427Z,2.40
2019-05-30T08:07:22.040Z,2.03
2019-05-30T08:10:12.875Z,2.07
2019-05-30T08:13:03.826Z,1.80
2019-05-30T08:15:54.650Z,2.20
2019-05-30T08:18:45.000Z,1.93
2019-05-30T08:21:36.197Z,1.83
2019-05-30T08:24:28.178Z,2.00
2019-05-30T08:27:18.401Z,2.27
2019-05-30T08:30:11.397Z,2.67
2019-05-30T08:33:01.545Z,2.70
2019-05-30T08:35:51.574Z,1.90
2019-05-30T08:38:41.495Z,2.00
2019-05-30T08:41:31.510Z,1.77
2019-05-30T08:44:21.735Z,2.00
2019-05-30T08:47:12.186Z,1.33
2019-05-30T08:50:02.084Z,1.70
2019-05-30T08:52:52.555Z,1.50
2019-05-30T08:55:43.251Z,1.43
2019-05-30T08:58:33.145Z,2.17
2019-05-30T09:01:22.725Z,1.80
2019-05-30T09:04:13.731Z,1.90
2019-05-30T09:07:03.556Z,1.77
2019-05-30T09:09:53.710Z,1.67
2019-05-30T09:12:49.024Z,2.53
2019-05-30T09:15:37.497Z,1.77
2019-05-30T09:18:27.189Z,1.77
2019-05-30T09:21:16.993Z,1.50
2019-05-30T09:24:07.606Z,1.70
2019-05-30T09:26:57.355Z,1.40
2019-05-30T09:29:48.222Z,1.43
2019-05-30T09:32:38.354Z,1.53
2019-05-30T09:35:29.930Z,1.90
2019-05-30T09:38:23.525Z,1.33
2019-05-30T09:41:14.317Z,1.40
2019-05-30T09:44:04.098Z,1.37
2019-05-30T09:46:54.165Z,1.57
2019-05-30T09:49:44.654Z,1.50
2019-05-30T09:52:34.677Z,1.90
2019-05-30T09:55:25.878Z,1.10
2019-05-30T09:58:16.261Z,1.13
2019-05-30T10:01:05.940Z,1.87
2019-05-30T10:03:55.600Z,1.70
2019-05-30T10:06:46.342Z,1.07
2019-05-30T10:09:37.056Z,1.43
2019-05-30T10:12:26.776Z,1.83
2019-05-30T10:15:19.690Z,1.47
2019-05-30T10:18:09.997Z,1.47
2019-05-30T10:21:00.234Z,1.60
2019-05-30T10:23:52.418Z,1.40
2019-05-30T10:26:41.690Z,1.50
2019-05-30T10:29:31.598Z,1.33
2019-05-30T10:32:21.540Z,1.67
2019-05-30T10:35:12.076Z,1.30
2019-05-30T10:38:02.316Z,1.37
2019-05-30T10:40:53.956Z,1.40
2019-05-30T10:43:44.717Z,1.37
2019-05-30T10:46:36.410Z,1.53
2019-05-30T10:49:34.850Z,1.20
2019-05-30T10:52:18.155Z,1.20
2019-05-30T10:55:08.161Z,1.57
2019-05-30T10:57:59.555Z,1.77
2019-05-30T11:00:53.863Z,1.37
2019-05-30T11:03:45.847Z,1.50
2019-05-30T11:07:01.143Z,1.10
2019-05-30T11:09:41.887Z,1.50
2019-05-30T11:12:31.790Z,1.00
2019-05-30T11:15:21.766Z,1.30
2019-05-30T11:18:12.500Z,1.33
2019-05-30T11:21:02.557Z,1.17
2019-05-30T11:23:52.725Z,1.00
2019-05-30T11:26:42.904Z,1.10
2019-05-30T11:29:32.670Z,1.07
2019-05-30T11:32:22.798Z,1.50
2019-05-30T11:35:12.370Z,0.80
2019-05-30T11:38:02.858Z,1.20
2019-05-30T11:40:53.405Z,1.20
2019-05-30T11:43:55.637Z,1.27
2019-05-30T11:46:45.285Z,0.77
2019-05-30T11:49:36.075Z,1.30
2019-05-30T11:52:26.015Z,1.47
2019-05-30T11:55:16.996Z,1.13
2019-05-30T11:58:12.676Z,1.27
2019-05-30T12:01:02.592Z,1.17
2019-05-30T12:03:52.640Z,1.40
2019-05-30T12:06:43.575Z,1.23
2019-05-30T12:09:46.457Z,1.40
2019-05-30T12:12:36.441Z,1.10
2019-05-30T12:15:27.395Z,1.50
2019-05-30T12:18:17.284Z,1.43
2019-05-30T12:21:32.909Z,1.00
2019-05-30T12:24:23.436Z,1.47
2019-05-30T12:27:13.355Z,1.60
2019-05-30T12:30:03.159Z,1.17
2019-05-30T12:32:54.204Z,1.60
2019-05-30T12:35:44.337Z,1.50
2019-05-30T12:38:34.879Z,1.27
2019-05-30T12:41:24.876Z,1.67
2019-05-30T12:44:15.385Z,1.20
2019-05-30T12:47:05.677Z,1.23
2019-05-30T12:49:55.611Z,1.40
2019-05-30T12:52:45.840Z,1.43
2019-05-30T12:55:37.713Z,1.40
2019-05-30T12:58:28.555Z,1.57
2019-05-30T13:01:18.715Z,1.93
2019-05-30T13:04:09.192Z,1.53
2019-05-30T13:06:59.364Z,1.50
2019-05-30T13:09:49.290Z,1.80
2019-05-30T13:12:40.733Z,1.47
2019-05-30T13:15:31.266Z,2.00
2019-05-30T13:18:21.361Z,2.20
2019-05-30T13:21:11.234Z,1.93
2019-05-30T13:24:01.855Z,2.33
2019-05-30T13:26:52.049Z,2.30
2019-05-30T13:29:42.179Z,2.13
2019-05-30T13:32:32.710Z,1.97
2019-05-30T13:35:22.550Z,2.13
2019-05-30T13:38:25.648Z,2.00
2019-05-30T13:41:04.121Z,2.10
2019-05-30T13:43:54.022Z,2.07
2019-05-30T13:46:44.015Z,2.10
2019-05-30T13:49:34.265Z,1.93
2019-05-30T13:52:23.871Z,1.93
2019-05-30T13:55:15.075Z,2.23
2019-05-30T13:58:05.761Z,1.80
2019-05-30T14:00:56.210Z,1.77
2019-05-30T14:03:45.843Z,1.73
2019-05-30T14:06:35.940Z,2.07
2019-05-30T14:09:26.170Z,2.20
2019-05-30T14:12:17.045Z,1.50
2019-05-30T14:15:10.502Z,1.70
2019-05-30T14:18:00.964Z,2.03
2019-05-30T14:20:50.624Z,1.73
2019-05-30T14:23:40.893Z,1.90
2019-05-30T14:26:30.523Z,2.13
2019-05-30T14:29:20.180Z,2.40
2019-05-30T14:32:09.947Z,1.70
2019-05-30T14:35:00.183Z,1.97
2019-05-30T14:37:50.155Z,1.67
2019-05-30T14:40:39.847Z,2.27
2019-05-30T14:43:29.697Z,2.10
2019-05-30T14:46:19.943Z,2.37
2019-05-30T14:49:10.716Z,1.60
2019-05-30T14:52:01.072Z,2.03
2019-05-30T14:54:51.301Z,2.10
2019-05-30T14:57:41.164Z,2.17
2019-05-30T15:00:31.015Z,1.60
2019-05-30T15:03:21.204Z,1.80
2019-05-30T15:06:13.271Z,2.27
2019-05-30T15:09:15.201Z,1.80
2019-05-30T15:11:54.962Z,1.67
2019-05-30T15:14:44.908Z,2.67
2019-05-30T15:17:35.120Z,2.13
2019-05-30T15:20:25.679Z,2.30
2019-05-30T15:23:15.863Z,1.73
2019-05-30T15:26:06.064Z,1.80
2019-05-30T15:28:56.395Z,2.13
2019-05-30T15:31:47.610Z,1.57
2019-05-30T15:34:38.490Z,1.67
2019-05-30T15:37:29.034Z,2.00
2019-05-30T15:40:19.274Z,2.30
2019-05-30T15:43:09.516Z,1.90
2019-05-30T15:45:59.375Z,2.13
2019-05-30T15:48:50.352Z,1.83
2019-05-30T15:51:41.511Z,2.00
2019-05-30T15:54:31.282Z,2.17
2019-05-30T15:57:20.938Z,2.07
2019-05-30T16:00:15.961Z,2.60
2019-05-30T16:03:07.596Z,2.10
2019-05-30T16:05:57.509Z,1.90
2019-05-30T16:08:47.757Z,2.30
2019-05-30T16:11:37.395Z,2.17
2019-05-30T16:14:28.555Z,2.80
2019-05-30T16:17:19.660Z,1.53
2019-05-30T16:20:11.647Z,2.17
2019-05-30T16:23:02.671Z,1.80
2019-05-30T16:25:53.210Z,1.80
2019-05-30T16:28:42.997Z,2.00
2019-05-30T16:31:33.319Z,1.73
2019-05-30T16:34:23.409Z,2.20
2019-05-30T16:37:14.162Z,1.60
2019-05-30T16:40:06.850Z,2.90
2019-05-30T16:42:57.999Z,2.20
2019-05-30T16:45:47.990Z,2.17
2019-05-30T16:48:39.394Z,2.10
2019-05-30T16:51:29.721Z,2.40
2019-05-30T16:54:19.788Z,2.07
2019-05-30T16:57:09.507Z,2.13
2019-05-30T16:59:59.249Z,1.70
2019-05-30T17:02:49.538Z,2.40
2019-05-30T17:05:39.095Z,2.10
2019-05-30T17:08:28.919Z,2.70
2019-05-30T17:11:19.310Z,3.07
2019-05-30T17:14:08.804Z,2.93
2019-05-30T17:16:58.715Z,2.50
2019-05-30T17:19:49.199Z,4.53
2019-05-30T17:22:39.440Z,2.70
2019-05-30T17:25:29.230Z,2.97
2019-05-30T17:28:20.380Z,3.47
2019-05-30T17:31:10.481Z,2.80
2019-05-30T17:34:00.399Z,3.13
2019-05-30T17:36:50.634Z,4.33
2019-05-30T17:39:40.595Z,3.57
2019-05-30T17:42:29.905Z,3.20
2019-05-30T17:45:20.823Z,2.90
2019-05-30T17:48:16.489Z,2.73
2019-05-30T17:51:02.180Z,3.10
2019-05-30T17:53:52.504Z,2.90
2019-05-30T17:56:42.678Z,2.87
2019-05-30T17:59:38.525Z,2.93
2019-05-30T18:02:28.613Z,3.10
2019-05-30T18:05:18.796Z,2.97
2019-05-30T18:08:08.878Z,2.90
2019-05-30T18:10:58.609Z,2.60
2019-05-30T18:13:48.383Z,2.27
2019-05-30T18:16:37.859Z,2.43
2019-05-30T18:19:27.818Z,2.53
2019-05-30T18:22:17.586Z,2.80
2019-05-30T18:25:08.703Z,2.40
2019-05-30T18:27:59.225Z,2.50
2019-05-30T18:30:49.214Z,2.53
2019-05-30T18:33:41.482Z,2.20
2019-05-30T18:36:31.026Z,2.77
2019-05-30T18:39:22.178Z,2.47
2019-05-30T18:42:12.555Z,2.50
2019-05-30T18:45:01.915Z,2.57
2019-05-30T18:47:51.410Z,2.70
2019-05-30T18:50:41.695Z,2.50
2019-05-30T18:53:32.465Z,3.23
2019-05-30T18:56:34.761Z,2.90
2019-05-30T18:59:24.957Z,2.47
2019-05-30T19:02:18.315Z,2.93
2019-05-30T19:05:07.475Z,2.43
2019-05-30T19:07:57.854Z,3.33
2019-05-30T19:10:48.785Z,2.60
2019-05-30T19:13:39.196Z,2.77
2019-05-30T19:16:30.823Z,3.07
2019-05-30T19:19:21.817Z,3.03
2019-05-30T19:22:11.410Z,2.83
2019-05-30T19:25:01.700Z,3.07
2019-05-30T19:27:52.005Z,2.83
2019-05-30T19:30:42.231Z,2.93
2019-05-30T19:33:32.915Z,3.27
2019-05-30T19:36:23.423Z,3.47
2019-05-30T19:39:13.705Z,3.20
2019-05-30T19:42:03.216Z,2.93
2019-05-30T19:44:53.745Z,3.60
2019-05-30T19:47:43.976Z,3.33
2019-05-30T19:50:34.639Z,3.23
2019-05-30T19:53:25.186Z,3.20
2019-05-30T19:56:14.966Z,3.33
2019-05-30T19:59:05.034Z,4.10
2019-05-30T20:01:56.010Z,3.63
2019-05-30T20:04:46.370Z,4.03
2019-05-30T20:07:36.687Z,4.13
2019-05-30T20:10:26.855Z,3.80
2019-05-30T20:13:16.665Z,3.93
2019-05-30T20:16:07.445Z,3.80
2019-05-30T20:18:57.355Z,3.47
2019-05-30T20:21:47.505Z,3.40
2019-05-30T20:24:38.314Z,3.30
2019-05-30T20:27:28.258Z,3.57
2019-05-30T20:30:19.225Z,4.33
2019-05-30T20:33:10.823Z,3.90
2019-05-30T20:36:00.539Z,4.13
2019-05-30T20:38:50.799Z,3.70
2019-05-30T20:41:40.971Z,4.10
2019-05-30T20:44:31.305Z,3.90
2019-05-30T20:47:21.277Z,4.50
2019-05-30T20:50:14.787Z,4.23
2019-05-30T20:53:03.142Z,4.07
2019-05-30T20:55:53.376Z,3.93
2019-05-30T20:58:43.924Z,4.17
2019-05-30T21:01:35.505Z,4.17
2019-05-30T21:04:25.799Z,3.80
2019-05-30T21:07:16.285Z,3.77
2019-05-30T21:10:06.656Z,5.13
2019-05-30T21:12:57.970Z,4.37
2019-05-30T21:15:49.035Z,4.73
2019-05-30T21:18:39.687Z,4.17
2019-05-30T21:21:30.635Z,4.67
2019-05-30T21:24:20.881Z,4.83
2019-05-30T21:27:10.984Z,5.30
2019-05-30T21:30:00.980Z,4.40
2019-05-30T21:32:51.141Z,4.57
2019-05-30T21:35:41.809Z,4.60
2019-05-30T21:38:32.449Z,4.90
2019-05-30T21:41:23.276Z,4.70
2019-05-30T21:44:13.015Z,4.80
2019-05-30T21:47:02.814Z,4.97
2019-05-30T21:49:53.006Z,5.37
2019-05-30T21:52:43.583Z,5.60
2019-05-30T21:55:33.994Z,5.23
2019-05-30T21:58:23.810Z,5.13
2019-05-30T22:01:34.490Z,4.70
2019-05-30T22:04:24.866Z,6.10
2019-05-30T22:07:14.339Z,5.37
2019-05-30T22:10:05.215Z,4.97
2019-05-30T22:13:09.186Z,5.87
2019-05-30T22:15:49.782Z,4.93
2019-05-30T22:18:39.834Z,5.33
2019-05-30T22:21:30.316Z,5.17
2019-05-30T22:24:20.908Z,4.57
2019-05-30T22:27:11.564Z,5.30
2019-05-30T22:30:01.818Z,5.27
2019-05-30T22:32:52.813Z,4.97
2019-05-30T22:35:44.475Z,5.37
2019-05-30T22:38:35.099Z,4.97
2019-05-30T22:41:24.915Z,5.67
2019-05-30T22:44:14.747Z,6.17
2019-05-30T22:47:04.552Z,5.50
2019-05-30T22:49:54.702Z,5.97
2019-05-30T22:52:44.840Z,6.03
2019-05-30T22:55:34.483Z,5.87
2019-05-30T22:58:25.045Z,5.80
2019-05-30T23:01:14.840Z,6.17
2019-05-30T23:04:04.850Z,6.07
2019-05-30T23:06:54.802Z,6.90
2019-05-30T23:09:45.561Z,6.33
2019-05-30T23:12:35.732Z,4.80
2019-05-30T23:15:25.585Z,6.03
2019-05-30T23:18:15.551Z,5.57
2019-05-30T23:21:06.317Z,6.50
2019-05-30T23:23:57.322Z,6.33
2019-05-30T23:26:47.418Z,5.23
2019-05-30T23:29:38.316Z,5.33
2019-05-30T23:32:28.757Z,5.57
2019-05-30T23:35:19.283Z,5.07
2019-05-30T23:40:31.575Z,5.23
2019-05-30T23:43:21.680Z,6.07
2019-05-30T23:46:12.004Z,5.57
2019-05-30T23:49:02.483Z,4.63
2019-05-30T23:51:52.075Z,4.77
2019-05-30T23:54:41.670Z,4.93
2019-05-30T23:57:31.191Z,4.63
